Time;durP1;ratioP1;P1;durP2;ratioP2;P2;SDS_P1;SDS_P2;PMS_P1;PMS_P2;Temp;Humidity;BMP_temperature;BMP_pressure;BME280_temperature;BME280_humidity;BME280_pressure;Samples;Min_cycle;Max_cycle;Signal;HPM_P1;HPM_P2
2021/12/23 00:00:40;;;;;;;36.73;22.83;;;-4.10;99.90;;;;;;5043325;28;20484;-67
2021/12/23 00:03:07;;;;;;;43.53;25.50;;;-4.20;99.90;;;;;;5042936;28;21019;-66
2021/12/23 00:05:34;;;;;;;44.27;24.50;;;-4.20;99.90;;;;;;5044060;28;20475;-67
2021/12/23 00:08:01;;;;;;;44.10;26.00;;;-4.20;99.90;;;;;;5043128;28;20457;-68
2021/12/23 00:10:28;;;;;;;43.13;23.77;;;-4.10;99.90;;;;;;5043516;28;20462;-67
2021/12/23 00:12:55;;;;;;;45.57;25.60;;;-4.10;99.90;;;;;;5042465;28;20564;-66
2021/12/23 00:15:29;;;;;;;42.63;24.83;;;-4.10;99.90;;;;;;5041251;28;20520;-67
2021/12/23 00:18:04;;;;;;;39.67;23.87;;;-4.10;99.90;;;;;;5041198;28;20526;-66
2021/12/23 00:23:31;;;;;;;40.97;25.50;;;-4.00;99.90;;;;;;4981015;28;20526;-66
2021/12/23 00:26:01;;;;;;;43.50;24.70;;;-4.00;99.90;;;;;;5027831;28;20534;-66
2021/12/23 00:28:29;;;;;;;53.80;28.87;;;-4.10;99.90;;;;;;5041940;28;21012;-66
2021/12/23 00:30:57;;;;;;;43.50;25.30;;;-4.10;99.90;;;;;;5042274;28;20570;-65
2021/12/23 00:33:24;;;;;;;43.50;26.97;;;-4.10;99.90;;;;;;5042180;28;20575;-67
2021/12/23 00:35:53;;;;;;;56.40;28.10;;;-4.10;99.90;;;;;;5042983;28;20531;-66
2021/12/23 00:38:25;;;;;;;47.30;26.90;;;-4.10;99.90;;;;;;5041843;28;20433;-66
2021/12/23 00:40:52;;;;;;;46.93;27.10;;;-4.00;99.90;;;;;;5041458;28;20643;-66
2021/12/23 00:43:20;;;;;;;47.17;26.60;;;-3.90;99.90;;;;;;5042920;28;20456;-67
2021/12/23 00:45:47;;;;;;;46.47;27.50;;;-3.90;99.90;;;;;;5042980;28;20507;-67
2021/12/23 00:48:16;;;;;;;47.00;27.47;;;-3.80;99.90;;;;;;5041110;28;20480;-67
2021/12/23 00:50:43;;;;;;;42.17;25.70;;;-3.70;99.90;;;;;;5044621;28;20532;-67
2021/12/23 00:53:10;;;;;;;50.07;26.70;;;-3.70;99.90;;;;;;5044786;28;20468;-67
2021/12/23 00:55:38;;;;;;;47.33;29.37;;;-3.70;99.90;;;;;;5045331;28;20505;-67
2021/12/23 00:58:05;;;;;;;47.33;27.20;;;-3.70;99.90;;;;;;5033467;28;20579;-67
2021/12/23 01:00:32;;;;;;;49.07;27.80;;;-3.60;99.90;;;;;;5040493;28;20571;-66
2021/12/23 01:03:00;;;;;;;43.43;25.50;;;-3.50;99.90;;;;;;5027041;28;20508;-67
2021/12/23 01:05:29;;;;;;;39.30;25.37;;;-3.60;99.90;;;;;;5027159;28;20464;-67
2021/12/23 01:07:56;;;;;;;49.07;27.33;;;-3.60;99.90;;;;;;5026837;28;20446;-67
2021/12/23 01:10:24;;;;;;;45.63;25.50;;;-3.60;99.90;;;;;;5030987;28;20445;-67
2021/12/23 01:12:57;;;;;;;45.20;24.83;;;-3.70;99.90;;;;;;5030915;28;20972;-67
2021/12/23 01:15:50;;;;;;;44.63;24.87;;;-3.70;99.90;;;;;;5031417;28;20455;-67
2021/12/23 01:18:20;;;;;;;49.03;29.47;;;-3.70;99.90;;;;;;5031101;28;20448;-68
2021/12/23 01:20:53;;;;;;;43.30;25.90;;;-3.60;99.90;;;;;;5031492;28;20484;-66
2021/12/23 01:23:23;;;;;;;48.50;25.47;;;-3.60;99.90;;;;;;5031000;28;20476;-67
2021/12/23 01:25:51;;;;;;;40.67;23.90;;;-3.60;99.90;;;;;;5030959;28;20444;-67
2021/12/23 01:28:18;;;;;;;46.13;28.20;;;-3.50;99.90;;;;;;5030225;28;20453;-67
2021/12/23 01:30:45;;;;;;;44.50;24.80;;;-3.50;99.90;;;;;;5031239;28;20453;-67
2021/12/23 01:33:12;;;;;;;43.63;25.67;;;-3.50;99.90;;;;;;5031022;28;21005;-66
2021/12/23 01:35:40;;;;;;;46.70;26.87;;;-3.40;99.90;;;;;;5031388;28;20445;-67
2021/12/23 01:38:09;;;;;;;48.27;26.77;;;-3.40;99.90;;;;;;5030349;28;20540;-67
2021/12/23 01:40:36;;;;;;;42.47;26.47;;;-3.30;99.90;;;;;;5031243;28;20971;-67
2021/12/23 01:43:04;;;;;;;48.40;26.90;;;-3.30;99.90;;;;;;5030355;28;20565;-66
2021/12/23 01:45:33;;;;;;;48.17;28.80;;;-3.20;99.90;;;;;;5031196;28;20962;-65
2021/12/23 01:48:02;;;;;;;47.17;26.77;;;-3.20;99.90;;;;;;5029940;28;21188;-67
2021/12/23 01:50:30;;;;;;;47.53;27.60;;;-3.10;99.90;;;;;;5030875;28;20542;-67
2021/12/23 01:52:59;;;;;;;38.47;22.90;;;-3.00;99.90;;;;;;5030372;28;20475;-67
2021/12/23 01:55:27;;;;;;;44.80;26.80;;;-3.00;99.90;;;;;;5031053;28;20454;-67
2021/12/23 01:57:55;;;;;;;47.33;27.90;;;-3.00;99.90;;;;;;5029985;28;20842;-67
2021/12/23 02:00:25;;;;;;;45.37;25.70;;;-2.90;99.90;;;;;;5030535;28;20477;-67
2021/12/23 02:02:54;;;;;;;45.00;24.77;;;-2.80;99.90;;;;;;5030324;28;20465;-67
2021/12/23 02:05:20;;;;;;;46.53;25.43;;;-2.80;99.90;;;;;;5030144;28;21030;-66
2021/12/23 02:07:48;;;;;;;40.97;24.77;;;-2.80;99.90;;;;;;5029552;28;20452;-67
2021/12/23 02:10:15;;;;;;;42.00;25.30;;;-2.70;99.90;;;;;;5030117;28;20451;-66
2021/12/23 02:12:46;;;;;;;43.13;25.07;;;-2.70;99.90;;;;;;5029892;28;20464;-66
2021/12/23 02:15:13;;;;;;;46.13;26.90;;;-2.70;99.90;;;;;;5030029;28;20456;-66
2021/12/23 02:17:42;;;;;;;40.83;23.77;;;-2.60;99.90;;;;;;5029286;28;20460;-65
2021/12/23 02:20:13;;;;;;;38.10;24.00;;;-2.60;99.90;;;;;;5029377;28;20479;-66
2021/12/23 02:22:41;;;;;;;40.63;23.70;;;-2.70;99.90;;;;;;5029107;28;20461;-66
2021/12/23 02:25:10;;;;;;;38.03;22.97;;;-2.60;99.90;;;;;;5030259;28;20456;-66
2021/12/23 02:27:37;;;;;;;41.87;24.93;;;-2.70;99.90;;;;;;5029059;28;20450;-66
2021/12/23 02:30:09;;;;;;;41.50;23.90;;;-2.60;99.90;;;;;;5029828;28;20455;-66
2021/12/23 02:32:37;;;;;;;42.10;24.77;;;-2.60;99.90;;;;;;5029146;28;20465;-66
2021/12/23 02:35:04;;;;;;;42.03;23.43;;;-2.60;99.90;;;;;;5029597;28;20532;-66
2021/12/23 02:37:33;;;;;;;33.83;22.70;;;-2.60;99.90;;;;;;5028822;28;20453;-66
2021/12/23 02:39:59;;;;;;;35.40;22.47;;;-2.60;99.90;;;;;;5029589;28;20441;-66
2021/12/23 02:42:26;;;;;;;36.23;22.53;;;-2.50;99.90;;;;;;5029334;28;20544;-66
2021/12/23 02:44:55;;;;;;;38.80;24.10;;;-2.50;99.90;;;;;;5029199;28;21181;-65
2021/12/23 02:47:22;;;;;;;40.73;24.47;;;-2.50;99.90;;;;;;5028560;28;20947;-66
2021/12/23 02:49:49;;;;;;;39.07;22.33;;;-2.50;99.90;;;;;;5029409;28;20471;-65
2021/12/23 02:52:16;;;;;;;39.70;22.30;;;-2.60;99.90;;;;;;5029359;28;20772;-65
2021/12/23 02:54:44;;;;;;;40.97;23.40;;;-2.50;99.90;;;;;;5028845;28;20805;-65
2021/12/23 02:57:11;;;;;;;41.43;23.13;;;-2.60;99.90;;;;;;5028434;28;20456;-65
2021/12/23 02:59:38;;;;;;;41.30;23.07;;;-2.60;99.90;;;;;;5029039;28;20453;-65
2021/12/23 03:02:05;;;;;;;29.33;19.77;;;-2.60;99.90;;;;;;5029056;28;20481;-65
2021/12/23 03:04:32;;;;;;;40.30;24.27;;;-2.60;99.90;;;;;;5028595;28;20468;-66
2021/12/23 03:06:59;;;;;;;36.10;22.07;;;-2.60;99.90;;;;;;5028451;28;20449;-66
2021/12/23 03:09:26;;;;;;;41.70;24.07;;;-2.50;99.90;;;;;;5029167;28;20481;-65
2021/12/23 03:11:55;;;;;;;40.03;22.27;;;-2.50;99.90;;;;;;5028941;28;20859;-67
2021/12/23 03:14:22;;;;;;;36.40;21.80;;;-2.50;99.90;;;;;;5028749;28;20469;-66
2021/12/23 03:16:50;;;;;;;34.77;21.80;;;-2.40;99.90;;;;;;5027969;28;20457;-65
2021/12/23 03:19:17;;;;;;;35.80;21.93;;;-2.40;99.90;;;;;;5028837;28;20468;-67
2021/12/23 03:21:44;;;;;;;37.73;23.13;;;-2.40;99.90;;;;;;5028726;28;20485;-66
2021/12/23 03:24:11;;;;;;;39.87;23.80;;;-2.50;99.90;;;;;;5028278;28;20473;-66
2021/12/23 03:26:38;;;;;;;34.80;21.60;;;-2.50;99.90;;;;;;5027735;28;20451;-66
2021/12/23 03:29:08;;;;;;;36.90;23.53;;;-2.50;99.90;;;;;;5029073;28;21074;-66
2021/12/23 03:31:34;;;;;;;37.73;23.50;;;-2.50;99.90;;;;;;5028467;28;20987;-66
2021/12/23 03:34:02;;;;;;;34.70;20.67;;;-2.50;99.90;;;;;;5027820;28;20481;-66
2021/12/23 03:36:28;;;;;;;37.10;22.03;;;-2.50;99.90;;;;;;5028010;28;20441;-66
2021/12/23 03:38:55;;;;;;;38.80;22.87;;;-2.60;99.90;;;;;;5028384;28;20923;-66
2021/12/23 03:41:22;;;;;;;36.60;23.00;;;-2.50;99.90;;;;;;5028778;28;20478;-66
2021/12/23 03:43:49;;;;;;;36.13;21.20;;;-2.50;99.90;;;;;;5028253;28;20504;-66
2021/12/23 03:46:18;;;;;;;35.40;19.80;;;-2.50;99.90;;;;;;5028284;28;20452;-65
2021/12/23 03:48:45;;;;;;;38.27;21.20;;;-2.50;99.90;;;;;;5028580;28;20456;-65
2021/12/23 03:51:11;;;;;;;34.30;23.27;;;-2.60;99.90;;;;;;5028453;28;20449;-65
2021/12/23 03:53:38;;;;;;;38.20;22.90;;;-2.60;99.90;;;;;;5027992;28;20484;-65
2021/12/23 03:56:05;;;;;;;39.00;22.27;;;-2.60;99.90;;;;;;5027864;28;20447;-66
2021/12/23 03:58:32;;;;;;;36.47;21.47;;;-2.70;99.90;;;;;;5027773;28;20445;-66
2021/12/23 04:01:00;;;;;;;31.00;19.63;;;-2.50;99.90;;;;;;5027931;28;20487;-66
2021/12/23 04:03:28;;;;;;;35.47;21.30;;;-2.50;99.90;;;;;;5027635;28;20473;-65
2021/12/23 04:05:55;;;;;;;33.87;21.87;;;-2.50;99.90;;;;;;5027965;28;21379;-65
2021/12/23 04:08:22;;;;;;;32.60;20.03;;;-2.40;99.90;;;;;;5027255;28;20453;-66
2021/12/23 04:10:49;;;;;;;34.10;21.00;;;-2.40;99.90;;;;;;5027775;28;20532;-66
2021/12/23 04:13:15;;;;;;;34.27;20.47;;;-2.30;99.90;;;;;;5027935;28;20474;-66
2021/12/23 04:15:42;;;;;;;30.73;19.50;;;-2.30;99.90;;;;;;5027909;28;20445;-66
2021/12/23 04:18:09;;;;;;;30.60;18.57;;;-2.20;99.90;;;;;;5027323;28;20901;-65
2021/12/23 04:20:46;;;;;;;28.87;18.10;;;-2.20;99.90;;;;;;5028137;28;21032;-66
2021/12/23 04:23:13;;;;;;;34.50;20.10;;;-2.20;99.90;;;;;;5027452;28;20507;-66
2021/12/23 04:25:40;;;;;;;32.70;20.10;;;-2.10;99.90;;;;;;5028425;28;20449;-66
2021/12/23 04:28:07;;;;;;;28.10;18.77;;;-2.10;99.90;;;;;;5027038;28;20453;-65
2021/12/23 04:30:34;;;;;;;28.23;18.07;;;-2.10;99.90;;;;;;5027932;28;20464;-65
2021/12/23 04:33:01;;;;;;;31.80;19.20;;;-2.00;99.90;;;;;;5027142;28;21257;-66
2021/12/23 04:35:28;;;;;;;31.67;18.70;;;-1.90;99.90;;;;;;5027761;28;20939;-66
2021/12/23 04:37:56;;;;;;;30.87;18.20;;;-1.90;99.90;;;;;;5026848;28;20444;-66
2021/12/23 04:40:23;;;;;;;29.63;19.13;;;-1.90;99.90;;;;;;5027675;28;20448;-66
2021/12/23 04:42:50;;;;;;;34.33;19.83;;;-1.80;99.90;;;;;;5027425;28;20457;-65
2021/12/23 04:45:17;;;;;;;30.47;17.50;;;-1.80;99.90;;;;;;5027329;28;20433;-66
2021/12/23 04:47:44;;;;;;;31.03;19.40;;;-1.70;99.90;;;;;;5027080;28;20437;-65
2021/12/23 04:50:14;;;;;;;30.70;18.73;;;-1.70;99.90;;;;;;5027407;28;20442;-66
2021/12/23 04:52:41;;;;;;;31.97;20.50;;;-1.80;99.90;;;;;;5027484;28;20479;-66
2021/12/23 04:55:11;;;;;;;28.43;19.80;;;-1.90;99.90;;;;;;5027621;28;20841;-66
2021/12/23 04:57:38;;;;;;;31.20;19.93;;;-2.00;99.90;;;;;;5026973;28;20446;-66
2021/12/23 05:00:09;;;;;;;30.80;19.90;;;-2.20;99.90;;;;;;5027544;28;20444;-66
2021/12/23 05:02:36;;;;;;;32.30;19.30;;;-2.30;99.90;;;;;;5027141;28;20493;-66
2021/12/23 05:05:04;;;;;;;32.63;20.40;;;-2.30;99.90;;;;;;5027102;28;20477;-65
2021/12/23 05:07:31;;;;;;;32.77;21.80;;;-2.20;99.90;;;;;;5026861;28;20445;-65
2021/12/23 05:09:57;;;;;;;38.30;21.77;;;-2.20;99.90;;;;;;5027587;28;20450;-65
2021/12/23 05:12:26;;;;;;;29.27;20.47;;;-2.30;99.90;;;;;;5027347;28;20443;-65
2021/12/23 05:14:52;;;;;;;30.00;20.40;;;-2.30;99.90;;;;;;5027232;28;20457;-65
2021/12/23 05:17:19;;;;;;;35.80;22.43;;;-2.40;99.90;;;;;;5026298;28;20532;-66
2021/12/23 05:19:46;;;;;;;36.87;21.30;;;-2.50;99.90;;;;;;5027857;28;20456;-66
2021/12/23 05:22:13;;;;;;;34.93;21.27;;;-2.60;99.90;;;;;;5027181;28;20485;-65
2021/12/23 05:24:40;;;;;;;35.70;21.53;;;-2.70;99.90;;;;;;5026980;28;20452;-65
2021/12/23 05:27:07;;;;;;;33.93;19.60;;;-2.70;99.90;;;;;;5026323;28;20488;-66
2021/12/23 05:29:35;;;;;;;36.70;22.23;;;-2.80;99.90;;;;;;5026996;28;20453;-65
2021/12/23 05:32:02;;;;;;;31.50;20.93;;;-2.80;99.90;;;;;;5026820;28;20476;-66
2021/12/23 05:34:29;;;;;;;35.53;20.97;;;-2.90;99.90;;;;;;5026451;28;21015;-65
2021/12/23 05:36:55;;;;;;;34.30;20.47;;;-2.90;99.90;;;;;;5026429;28;20571;-65
2021/12/23 05:39:22;;;;;;;34.33;20.60;;;-3.00;99.90;;;;;;5026586;28;20552;-66
2021/12/23 05:41:49;;;;;;;32.57;20.67;;;-3.10;99.90;;;;;;5027291;28;20481;-66
2021/12/23 05:44:16;;;;;;;36.17;22.13;;;-3.10;99.90;;;;;;5026519;28;20484;-66
2021/12/23 05:46:44;;;;;;;36.10;22.27;;;-3.10;99.90;;;;;;5026287;28;20441;-66
2021/12/23 05:49:12;;;;;;;35.13;21.77;;;-3.10;99.90;;;;;;5026576;28;20455;-66
2021/12/23 05:51:40;;;;;;;37.63;22.80;;;-3.10;99.90;;;;;;5026995;28;20453;-65
2021/12/23 05:54:07;;;;;;;40.13;23.50;;;-3.10;99.90;;;;;;5025893;28;20556;-66
2021/12/23 05:56:34;;;;;;;33.17;21.27;;;-3.00;99.90;;;;;;5028095;28;20973;-66
2021/12/23 05:59:01;;;;;;;41.30;23.07;;;-3.00;99.90;;;;;;5030369;28;20461;-66
2021/12/23 06:01:28;;;;;;;34.20;22.40;;;-3.00;99.90;;;;;;5030061;28;21228;-66
2021/12/23 06:03:56;;;;;;;37.33;22.60;;;-3.00;99.90;;;;;;5029554;28;21010;-67
2021/12/23 06:06:23;;;;;;;39.07;22.70;;;-3.00;99.90;;;;;;5029046;28;20453;-67
2021/12/23 06:08:50;;;;;;;30.60;19.93;;;-3.00;99.90;;;;;;5030119;28;21136;-66
2021/12/23 06:11:17;;;;;;;37.07;22.03;;;-3.10;99.90;;;;;;5029835;28;20831;-67
2021/12/23 06:13:44;;;;;;;36.57;21.50;;;-3.10;99.90;;;;;;5029484;28;20469;-66
2021/12/23 06:16:11;;;;;;;33.13;21.77;;;-3.10;99.90;;;;;;5029769;28;20920;-66
2021/12/23 06:18:37;;;;;;;42.40;22.77;;;-3.10;99.90;;;;;;5029513;28;20441;-66
2021/12/23 06:21:06;;;;;;;36.47;22.90;;;-3.10;99.90;;;;;;5029698;28;20452;-66
2021/12/23 06:23:32;;;;;;;39.00;21.40;;;-3.10;99.90;;;;;;5029261;28;20465;-66
2021/12/23 06:25:59;;;;;;;36.73;21.40;;;-3.20;99.90;;;;;;5029739;28;20452;-67
2021/12/23 06:28:26;;;;;;;34.67;22.70;;;-3.20;99.90;;;;;;5028561;28;20459;-68
2021/12/23 06:30:53;;;;;;;37.00;22.70;;;-3.10;99.90;;;;;;5029718;28;20940;-66
2021/12/23 06:33:20;;;;;;;39.30;23.10;;;-3.10;99.90;;;;;;5029228;28;20470;-67
2021/12/23 06:35:47;;;;;;;39.37;20.70;;;-3.00;99.90;;;;;;5030079;28;20448;-67
2021/12/23 06:38:15;;;;;;;40.00;22.70;;;-3.00;99.90;;;;;;5028725;28;20449;-65
2021/12/23 06:40:42;;;;;;;36.93;23.30;;;-2.90;99.90;;;;;;5029334;28;20449;-67
2021/12/23 06:43:10;;;;;;;33.10;22.07;;;-2.90;99.90;;;;;;5028799;28;20488;-66
2021/12/23 06:45:37;;;;;;;31.30;20.77;;;-2.80;99.90;;;;;;5029556;28;20495;-67
2021/12/23 06:48:04;;;;;;;40.83;23.00;;;-2.70;99.90;;;;;;5028829;28;20955;-66
2021/12/23 06:50:31;;;;;;;37.60;23.33;;;-2.60;99.90;;;;;;5029525;28;20449;-67
2021/12/23 06:52:59;;;;;;;39.13;23.20;;;-2.50;99.90;;;;;;5029158;28;20504;-68
2021/12/23 06:55:27;;;;;;;38.67;22.03;;;-2.40;99.90;;;;;;5029058;28;20461;-66
2021/12/23 06:57:56;;;;;;;41.30;24.70;;;-2.50;99.90;;;;;;5028891;28;20446;-68
2021/12/23 07:00:25;;;;;;;37.20;21.70;;;-2.60;99.90;;;;;;5029093;28;20442;-68
2021/12/23 07:02:53;;;;;;;40.00;22.23;;;-2.60;99.90;;;;;;5028903;28;20547;-67
2021/12/23 07:05:21;;;;;;;32.90;20.53;;;-2.60;99.90;;;;;;5029104;28;20449;-66
2021/12/23 07:07:56;;;;;;;34.73;21.20;;;-2.70;99.90;;;;;;5028248;28;20965;-65
2021/12/23 07:10:25;;;;;;;38.40;23.60;;;-2.70;99.90;;;;;;5029179;28;20456;-67
2021/12/23 07:12:55;;;;;;;38.53;24.63;;;-2.70;99.90;;;;;;5028671;28;20469;-67
2021/12/23 07:15:23;;;;;;;38.33;24.73;;;-2.70;99.90;;;;;;5028805;28;20854;-67
2021/12/23 07:17:51;;;;;;;38.03;22.40;;;-2.80;99.90;;;;;;5028151;28;20999;-68
2021/12/23 07:20:18;;;;;;;33.77;21.77;;;-2.70;99.90;;;;;;5028840;28;20468;-66
2021/12/23 07:22:45;;;;;;;32.97;21.33;;;-2.80;99.90;;;;;;5028409;28;20492;-66
2021/12/23 07:25:13;;;;;;;34.70;20.20;;;-2.80;99.90;;;;;;5028920;28;20964;-66
2021/12/23 07:27:39;;;;;;;34.03;20.53;;;-2.80;99.90;;;;;;5027964;28;20445;-66
2021/12/23 07:30:09;;;;;;;34.83;21.33;;;-2.80;99.90;;;;;;5029074;28;20455;-66
2021/12/23 07:32:36;;;;;;;35.40;20.30;;;-2.70;99.90;;;;;;5028404;28;20471;-67
2021/12/23 07:35:03;;;;;;;40.27;24.60;;;-2.70;99.90;;;;;;5029223;28;20967;-67
2021/12/23 07:37:30;;;;;;;34.83;21.83;;;-2.60;99.90;;;;;;5028616;28;20459;-66
2021/12/23 07:39:57;;;;;;;38.33;23.40;;;-2.60;99.90;;;;;;5029129;28;20540;-67
2021/12/23 07:42:26;;;;;;;38.27;22.07;;;-2.60;99.90;;;;;;5028269;28;20572;-66
2021/12/23 07:44:54;;;;;;;34.80;20.73;;;-2.60;99.90;;;;;;5028575;28;20449;-67
2021/12/23 07:47:23;;;;;;;34.77;19.87;;;-2.50;99.90;;;;;;5027303;28;20441;-67
2021/12/23 07:49:50;;;;;;;38.93;22.17;;;-2.50;99.90;;;;;;5028231;28;20457;-67
2021/12/23 07:52:17;;;;;;;37.57;21.73;;;-2.50;99.90;;;;;;5028551;28;20524;-66
2021/12/23 07:54:44;;;;;;;32.80;20.23;;;-2.40;99.90;;;;;;5027684;28;20454;-68
2021/12/23 07:57:11;;;;;;;32.80;20.53;;;-2.40;99.90;;;;;;5027458;28;20453;-66
2021/12/23 07:59:38;;;;;;;36.90;21.93;;;-2.40;99.90;;;;;;5028149;28;20472;-67
2021/12/23 08:02:05;;;;;;;31.27;20.50;;;-2.30;99.90;;;;;;5028086;28;20542;-65
2021/12/23 08:04:35;;;;;;;36.67;23.17;;;-2.30;99.90;;;;;;5027391;28;20471;-66
2021/12/23 08:07:03;;;;;;;32.90;20.17;;;-2.20;99.90;;;;;;5027006;28;20448;-66
2021/12/23 08:09:30;;;;;;;34.43;21.47;;;-2.20;99.90;;;;;;5027702;28;20456;-66
2021/12/23 08:11:59;;;;;;;40.87;23.20;;;-2.10;99.90;;;;;;5027858;28;20535;-65
2021/12/23 08:14:26;;;;;;;37.70;21.43;;;-2.00;99.90;;;;;;5027189;28;20548;-66
2021/12/23 08:16:52;;;;;;;40.83;22.73;;;-1.90;99.90;;;;;;5027393;28;20437;-66
2021/12/23 08:19:19;;;;;;;39.50;20.67;;;-1.70;99.90;;;;;;5027645;28;20438;-66
2021/12/23 08:21:48;;;;;;;34.27;21.50;;;-1.60;99.90;;;;;;5027606;28;20441;-65
2021/12/23 08:24:14;;;;;;;32.33;19.20;;;-1.40;99.90;;;;;;5027509;28;20831;-68
2021/12/23 08:26:50;;;;;;;35.17;21.67;;;-1.20;99.90;;;;;;5026719;28;20446;-66
2021/12/23 08:29:18;;;;;;;35.27;20.90;;;-1.10;99.90;;;;;;5027508;28;20447;-66
2021/12/23 08:31:45;;;;;;;30.00;19.53;;;-0.90;99.90;;;;;;5027492;28;20493;-66
2021/12/23 08:34:12;;;;;;;31.00;20.40;;;-0.80;99.90;;;;;;5027042;28;20460;-64
2021/12/23 08:36:39;;;;;;;33.17;20.50;;;-0.70;99.90;;;;;;5026639;28;20798;-65
2021/12/23 08:39:07;;;;;;;28.33;19.40;;;-0.60;99.90;;;;;;5027455;28;20460;-66
2021/12/23 08:41:34;;;;;;;36.07;20.07;;;-0.50;99.90;;;;;;5027177;28;20528;-66
2021/12/23 08:44:01;;;;;;;30.37;18.43;;;-0.40;99.90;;;;;;5026922;28;20493;-67
2021/12/23 08:46:28;;;;;;;29.40;18.23;;;-0.30;99.90;;;;;;5026618;28;20456;-66
2021/12/23 08:48:55;;;;;;;27.60;18.33;;;-0.30;99.90;;;;;;5027326;28;20445;-67
2021/12/23 08:51:22;;;;;;;32.87;18.23;;;-0.20;99.90;;;;;;5039368;28;20462;-66
2021/12/23 08:53:49;;;;;;;27.43;17.83;;;-0.10;99.90;;;;;;5045490;28;20463;-68
2021/12/23 08:56:18;;;;;;;29.80;19.50;;;0.00;99.90;;;;;;5045649;28;20471;-69
2021/12/23 08:58:44;;;;;;;31.50;20.93;;;0.00;99.90;;;;;;5042469;28;20639;-65
2021/12/23 09:01:12;;;;;;;40.23;24.60;;;0.10;99.90;;;;;;5046126;28;20448;-66
2021/12/23 09:03:38;;;;;;;34.03;22.93;;;0.30;99.90;;;;;;5045836;28;20490;-66
2021/12/23 09:06:07;;;;;;;33.30;22.03;;;0.40;99.90;;;;;;5046194;28;20536;-66
2021/12/23 09:08:34;;;;;;;30.03;20.23;;;0.70;99.90;;;;;;5045380;28;20448;-67
2021/12/23 09:11:02;;;;;;;27.37;19.77;;;1.00;99.90;;;;;;5040091;28;20448;-66
2021/12/23 09:13:31;;;;;;;32.20;20.27;;;1.10;99.90;;;;;;5045303;28;20464;-66
2021/12/23 09:15:59;;;;;;;31.30;18.90;;;1.30;99.90;;;;;;5044419;28;20448;-67
2021/12/23 09:18:27;;;;;;;25.40;18.60;;;1.40;99.90;;;;;;5045377;28;20459;-68
2021/12/23 09:20:55;;;;;;;26.00;19.67;;;1.40;99.90;;;;;;5045489;28;20455;-66
2021/12/23 09:23:22;;;;;;;32.27;20.63;;;1.40;99.90;;;;;;5045615;28;20488;-67
2021/12/23 09:25:49;;;;;;;29.40;19.40;;;1.50;99.90;;;;;;5045742;28;20977;-68
2021/12/23 09:28:29;;;;;;;30.20;19.00;;;1.60;99.90;;;;;;5044409;28;20539;-68
2021/12/23 09:33:44;;;;;;;31.40;19.50;;;1.80;99.90;;;;;;5048842;28;20455;-65
2021/12/23 09:36:12;;;;;;;27.20;18.00;;;1.90;99.90;;;;;;5049136;28;20458;-66
2021/12/23 09:38:39;;;;;;;27.40;18.70;;;2.00;99.90;;;;;;5048877;28;20458;-66
2021/12/23 09:41:08;;;;;;;30.07;19.60;;;2.00;99.90;;;;;;5050676;28;20478;-66
2021/12/23 09:43:36;;;;;;;26.77;19.03;;;2.10;99.90;;;;;;5049827;28;20488;-66
2021/12/23 09:46:05;;;;;;;26.13;18.53;;;2.20;99.90;;;;;;5050345;28;20444;-66
2021/12/23 09:48:33;;;;;;;26.67;18.33;;;2.20;99.90;;;;;;5049615;28;20543;-66
2021/12/23 09:51:03;;;;;;;26.90;17.20;;;2.20;99.90;;;;;;5050694;28;20698;-66
2021/12/23 09:53:32;;;;;;;23.70;17.80;;;2.20;99.90;;;;;;5048863;28;20471;-67
2021/12/23 09:56:00;;;;;;;31.37;19.70;;;2.30;99.90;;;;;;5050379;28;20436;-67
2021/12/23 09:58:27;;;;;;;23.13;18.57;;;2.50;99.90;;;;;;5050115;28;20540;-67
2021/12/23 10:00:54;;;;;;;25.20;17.97;;;2.70;99.90;;;;;;5050668;28;20479;-68
2021/12/23 10:03:24;;;;;;;26.20;17.60;;;2.90;99.90;;;;;;5049484;28;20491;-68
2021/12/23 10:05:52;;;;;;;27.07;16.80;;;3.00;99.90;;;;;;5049936;28;20445;-68
2021/12/23 10:08:20;;;;;;;30.27;18.40;;;3.20;99.90;;;;;;5049577;28;20591;-69
2021/12/23 10:10:52;;;;;;;23.97;17.47;;;3.40;99.90;;;;;;5050143;28;20444;-67
2021/12/23 10:27:34;;;;;;;26.33;17.87;;;4.00;99.90;;;;;;5046408;28;20475;-70
2021/12/23 10:38:22;;;;;;;29.73;20.67;;;4.20;99.90;;;;;;5033885;28;20841;-70
2021/12/23 10:40:53;;;;;;;26.20;17.50;;;4.30;99.90;;;;;;5036737;28;20458;-69
2021/12/23 10:43:27;;;;;;;24.17;17.50;;;4.10;99.90;;;;;;5043418;28;20855;-69
2021/12/23 10:45:58;;;;;;;29.83;19.67;;;4.20;99.90;;;;;;5044397;28;20985;-69
2021/12/23 10:48:27;;;;;;;30.70;18.17;;;4.20;99.90;;;;;;5033580;28;20450;-69
2021/12/23 10:51:05;;;;;;;27.30;18.13;;;4.20;99.90;;;;;;5034186;28;20465;-69
2021/12/23 10:53:46;;;;;;;28.50;18.80;;;4.20;99.90;;;;;;5031720;28;20480;-69
2021/12/23 10:59:15;;;;;;;26.77;17.70;;;4.30;99.90;;;;;;5030690;28;20441;-69
2021/12/23 11:02:01;;;;;;;27.30;18.90;;;4.40;99.90;;;;;;5037369;28;20453;-68
2021/12/23 11:04:33;;;;;;;29.20;17.20;;;4.30;99.90;;;;;;5032997;28;20479;-69
2021/12/23 11:07:18;;;;;;;29.17;18.70;;;4.40;99.90;;;;;;5036039;28;20819;-69
2021/12/23 11:10:02;;;;;;;24.63;17.63;;;4.40;99.90;;;;;;5038526;28;20464;-69
2021/12/23 11:32:29;;;;;;;24.90;19.50;;;4.70;99.90;;;;;;5040690;28;20461;-69
2021/12/23 11:37:54;;;;;;;29.10;19.03;;;4.90;99.90;;;;;;5041002;28;20827;-70
2021/12/23 11:40:49;;;;;;;25.40;17.90;;;5.00;99.90;;;;;;5041555;28;20522;-68
2021/12/23 11:43:29;;;;;;;25.30;17.97;;;5.00;99.90;;;;;;5043850;28;20486;-69
2021/12/23 11:45:58;;;;;;;26.30;18.33;;;5.10;99.90;;;;;;5044417;28;20525;-68
2021/12/23 11:48:25;;;;;;;25.73;17.60;;;5.30;99.90;;;;;;5040035;28;20449;-68
2021/12/23 11:51:06;;;;;;;26.00;17.60;;;5.40;99.90;;;;;;5035080;28;20460;-69
2021/12/23 11:53:35;;;;;;;25.13;17.40;;;5.70;99.90;;;;;;5032408;28;20992;-68
2021/12/23 11:56:06;;;;;;;25.63;17.50;;;5.90;99.90;;;;;;5033389;28;20557;-69
2021/12/23 11:58:33;;;;;;;24.30;17.60;;;6.00;99.90;;;;;;5038898;28;21179;-68
2021/12/23 12:01:07;;;;;;;23.90;18.57;;;5.90;99.90;;;;;;5037943;28;20449;-68
2021/12/23 12:03:40;;;;;;;26.43;17.50;;;6.00;99.90;;;;;;5037644;28;20885;-68
2021/12/23 12:06:15;;;;;;;27.30;18.93;;;6.00;99.90;;;;;;5044880;28;20827;-68
2021/12/23 12:08:42;;;;;;;28.37;18.10;;;6.10;99.90;;;;;;5042901;28;21119;-68
2021/12/23 12:11:20;;;;;;;24.77;19.23;;;6.10;99.90;;;;;;5030997;28;20566;-68
2021/12/23 12:13:47;;;;;;;23.23;17.27;;;6.10;99.90;;;;;;5039943;28;20468;-69
2021/12/23 12:16:30;;;;;;;23.83;17.70;;;6.10;99.90;;;;;;5042267;28;20440;-66
2021/12/23 12:18:58;;;;;;;22.23;16.57;;;6.20;99.90;;;;;;5044971;28;20429;-67
2021/12/23 12:21:31;;;;;;;24.93;16.90;;;6.30;99.90;;;;;;5045654;28;20429;-67
2021/12/23 12:24:09;;;;;;;28.73;19.37;;;6.30;99.90;;;;;;5044711;28;20480;-67
2021/12/23 12:26:52;;;;;;;22.03;18.30;;;6.30;99.90;;;;;;5045095;28;20443;-67
2021/12/23 12:29:22;;;;;;;22.20;18.00;;;6.30;99.90;;;;;;5046278;28;20440;-66
2021/12/23 12:31:48;;;;;;;26.80;18.20;;;6.40;99.90;;;;;;5036477;28;20468;-67
2021/12/23 12:34:19;;;;;;;24.40;18.97;;;6.50;99.90;;;;;;5039247;28;20467;-68
2021/12/23 12:36:50;;;;;;;27.20;17.93;;;6.50;99.90;;;;;;5038567;28;20452;-67
2021/12/23 12:39:24;;;;;;;24.50;17.93;;;6.40;99.90;;;;;;5044607;28;20437;-68
2021/12/23 12:42:00;;;;;;;23.30;17.20;;;6.40;99.90;;;;;;5039683;28;20452;-69
2021/12/23 12:44:42;;;;;;;29.93;19.30;;;6.40;99.90;;;;;;5045486;28;20486;-67
2021/12/23 12:47:14;;;;;;;25.33;17.60;;;6.40;99.90;;;;;;5046342;28;20451;-67
2021/12/23 12:49:44;;;;;;;21.67;16.70;;;6.30;99.90;;;;;;5035550;28;20444;-69
2021/12/23 12:52:18;;;;;;;20.87;17.20;;;6.30;99.90;;;;;;5046589;28;20869;-70
2021/12/23 12:54:58;;;;;;;27.03;17.97;;;6.20;99.90;;;;;;5043074;28;20440;-69
2021/12/23 12:57:31;;;;;;;26.57;17.03;;;6.10;99.90;;;;;;5041149;28;20453;-70
2021/12/23 13:00:14;;;;;;;26.83;18.47;;;6.10;99.90;;;;;;5046800;28;20439;-71
2021/12/23 13:02:41;;;;;;;24.37;16.93;;;6.10;99.90;;;;;;5042797;28;20490;-75
2021/12/23 13:05:10;;;;;;;24.53;18.57;;;6.00;99.90;;;;;;5047053;28;20488;-70
2021/12/23 13:07:39;;;;;;;25.93;18.40;;;6.00;99.90;;;;;;5046557;28;20472;-69
2021/12/23 13:10:12;;;;;;;27.47;18.10;;;6.00;99.90;;;;;;5050572;28;20555;-70
2021/12/23 13:12:50;;;;;;;26.63;20.63;;;6.00;99.90;;;;;;5050442;28;21010;-71
2021/12/23 13:15:20;;;;;;;30.23;20.30;;;5.90;99.90;;;;;;5050549;28;21000;-69
2021/12/23 13:17:54;;;;;;;29.47;20.33;;;5.80;99.90;;;;;;5047828;28;20926;-69
2021/12/23 13:20:34;;;;;;;29.17;20.13;;;5.80;99.90;;;;;;5040748;28;20526;-71
2021/12/23 13:23:02;;;;;;;25.90;20.80;;;5.80;99.90;;;;;;5041249;28;20473;-70
2021/12/23 13:25:29;;;;;;;34.13;20.10;;;5.70;99.90;;;;;;5040886;28;20457;-70
2021/12/23 13:27:59;;;;;;;25.00;19.67;;;5.70;99.90;;;;;;5036395;28;20448;-68
2021/12/23 13:30:27;;;;;;;28.03;20.80;;;5.60;99.90;;;;;;5048285;28;20452;-69
2021/12/23 13:32:58;;;;;;;24.77;19.00;;;5.60;99.90;;;;;;5037425;28;21050;-68